sensor_id;sensor_type;location;lat;lon;timestamp;P1;durP1;ratioP1;P2;durP2;ratioP2
72109;SDS011;59983;52.010;5.420;2023-02-11T00:01:46;20.13;;;12.70;;
72109;SDS011;59983;52.010;5.420;2023-02-11T00:04:13;15.95;;;11.50;;
72109;SDS011;59983;52.010;5.420;2023-02-11T00:06:39;18.38;;;11.23;;
72109;SDS011;59983;52.010;5.420;2023-02-11T00:09:06;20.77;;;10.52;;
72109;SDS011;59983;52.010;5.420;2023-02-11T00:11:33;16.42;;;10.70;;
72109;SDS011;59983;52.010;5.420;2023-02-11T00:14:01;14.33;;;10.63;;
72109;SDS011;59983;52.010;5.420;2023-02-11T00:16:31;15.90;;;10.57;;
72109;SDS011;59983;52.010;5.420;2023-02-11T00:18:58;18.77;;;11.88;;
72109;SDS011;59983;52.010;5.420;2023-02-11T00:21:26;16.80;;;10.65;;
72109;SDS011;59983;52.010;5.420;2023-02-11T00:23:53;17.27;;;10.55;;
72109;SDS011;59983;52.010;5.420;2023-02-11T00:26:23;11.40;;;8.50;;
72109;SDS011;59983;52.010;5.420;2023-02-11T00:28:51;17.30;;;9.93;;
72109;SDS011;59983;52.010;5.420;2023-02-11T00:31:19;13.48;;;9.95;;
72109;SDS011;59983;52.010;5.420;2023-02-11T00:33:47;16.23;;;9.95;;
72109;SDS011;59983;52.010;5.420;2023-02-11T00:36:18;15.55;;;10.48;;
72109;SDS011;59983;52.010;5.420;2023-02-11T00:38:47;19.90;;;10.50;;
72109;SDS011;59983;52.010;5.420;2023-02-11T00:41:15;15.27;;;10.60;;
72109;SDS011;59983;52.010;5.420;2023-02-11T00:43:42;18.05;;;11.82;;
72109;SDS011;59983;52.010;5.420;2023-02-11T00:46:09;17.52;;;11.38;;
72109;SDS011;59983;52.010;5.420;2023-02-11T00:48:36;16.38;;;10.40;;
72109;SDS011;59983;52.010;5.420;2023-02-11T00:51:03;11.97;;;10.47;;
72109;SDS011;59983;52.010;5.420;2023-02-11T00:53:30;24.60;;;10.63;;
72109;SDS011;59983;52.010;5.420;2023-02-11T00:55:58;27.20;;;11.55;;
72109;SDS011;59983;52.010;5.420;2023-02-11T00:58:26;15.50;;;10.10;;
72109;SDS011;59983;52.010;5.420;2023-02-11T01:00:53;21.17;;;10.90;;
72109;SDS011;59983;52.010;5.420;2023-02-11T01:03:20;19.90;;;10.40;;
72109;SDS011;59983;52.010;5.420;2023-02-11T01:05:47;18.15;;;10.93;;
72109;SDS011;59983;52.010;5.420;2023-02-11T01:08:14;11.30;;;9.30;;
72109;SDS011;59983;52.010;5.420;2023-02-11T01:10:41;20.70;;;10.38;;
72109;SDS011;59983;52.010;5.420;2023-02-11T01:13:09;14.23;;;9.82;;
72109;SDS011;59983;52.010;5.420;2023-02-11T01:15:36;16.73;;;10.60;;
72109;SDS011;59983;52.010;5.420;2023-02-11T01:18:03;14.60;;;10.63;;
72109;SDS011;59983;52.010;5.420;2023-02-11T01:20:30;14.10;;;9.85;;
72109;SDS011;59983;52.010;5.420;2023-02-11T01:22:57;22.13;;;9.02;;
72109;SDS011;59983;52.010;5.420;2023-02-11T01:25:23;22.63;;;10.95;;
72109;SDS011;59983;52.010;5.420;2023-02-11T01:27:50;16.93;;;11.10;;
72109;SDS011;59983;52.010;5.420;2023-02-11T01:30:16;15.43;;;9.80;;
72109;SDS011;59983;52.010;5.420;2023-02-11T01:32:43;13.15;;;10.07;;
72109;SDS011;59983;52.010;5.420;2023-02-11T01:35:09;16.98;;;9.70;;
72109;SDS011;59983;52.010;5.420;2023-02-11T01:37:36;14.57;;;9.68;;
72109;SDS011;59983;52.010;5.420;2023-02-11T01:40:06;9.97;;;8.87;;
72109;SDS011;59983;52.010;5.420;2023-02-11T01:42:36;16.02;;;9.07;;
72109;SDS011;59983;52.010;5.420;2023-02-11T01:48:08;14.43;;;9.23;;
72109;SDS011;59983;52.010;5.420;2023-02-11T01:50:38;21.42;;;9.88;;
72109;SDS011;59983;52.010;5.420;2023-02-11T01:53:07;17.20;;;9.67;;
72109;SDS011;59983;52.010;5.420;2023-02-11T01:55:53;10.68;;;9.55;;
72109;SDS011;59983;52.010;5.420;2023-02-11T01:58:40;18.77;;;11.02;;
72109;SDS011;59983;52.010;5.420;2023-02-11T02:01:12;19.42;;;10.65;;
72109;SDS011;59983;52.010;5.420;2023-02-11T02:03:42;21.95;;;9.70;;
72109;SDS011;59983;52.010;5.420;2023-02-11T02:06:15;20.30;;;10.20;;
72109;SDS011;59983;52.010;5.420;2023-02-11T02:08:50;15.57;;;9.60;;
72109;SDS011;59983;52.010;5.420;2023-02-11T02:11:18;14.43;;;10.48;;
72109;SDS011;59983;52.010;5.420;2023-02-11T02:13:44;15.93;;;10.95;;
72109;SDS011;59983;52.010;5.420;2023-02-11T02:16:12;24.80;;;10.75;;
72109;SDS011;59983;52.010;5.420;2023-02-11T02:18:49;15.30;;;9.47;;
72109;SDS011;59983;52.010;5.420;2023-02-11T02:21:48;19.98;;;11.07;;
72109;SDS011;59983;52.010;5.420;2023-02-11T02:24:57;18.02;;;10.50;;
72109;SDS011;59983;52.010;5.420;2023-02-11T02:27:52;21.17;;;10.32;;
72109;SDS011;59983;52.010;5.420;2023-02-11T02:36:31;19.48;;;8.77;;
72109;SDS011;59983;52.010;5.420;2023-02-11T02:39:09;17.80;;;10.40;;
72109;SDS011;59983;52.010;5.420;2023-02-11T02:41:39;21.73;;;12.95;;
72109;SDS011;59983;52.010;5.420;2023-02-11T02:44:07;17.55;;;10.65;;
72109;SDS011;59983;52.010;5.420;2023-02-11T02:46:34;11.07;;;9.80;;
72109;SDS011;59983;52.010;5.420;2023-02-11T02:49:01;18.58;;;10.15;;
72109;SDS011;59983;52.010;5.420;2023-02-11T02:57:03;26.75;;;13.63;;
72109;SDS011;59983;52.010;5.420;2023-02-11T03:02:19;13.80;;;10.95;;
72109;SDS011;59983;52.010;5.420;2023-02-11T03:05:09;15.98;;;10.25;;
72109;SDS011;59983;52.010;5.420;2023-02-11T03:07:55;18.85;;;11.55;;
72109;SDS011;59983;52.010;5.420;2023-02-11T03:10:29;23.88;;;12.10;;
72109;SDS011;59983;52.010;5.420;2023-02-11T03:12:59;17.73;;;11.97;;
72109;SDS011;59983;52.010;5.420;2023-02-11T03:15:29;20.05;;;11.52;;
72109;SDS011;59983;52.010;5.420;2023-02-11T03:18:00;25.77;;;12.82;;
72109;SDS011;59983;52.010;5.420;2023-02-11T03:20:29;23.63;;;12.88;;
72109;SDS011;59983;52.010;5.420;2023-02-11T03:23:10;20.05;;;13.45;;
72109;SDS011;59983;52.010;5.420;2023-02-11T03:25:43;21.33;;;12.17;;
72109;SDS011;59983;52.010;5.420;2023-02-11T03:28:16;24.52;;;13.05;;
72109;SDS011;59983;52.010;5.420;2023-02-11T03:31:00;20.30;;;11.45;;
72109;SDS011;59983;52.010;5.420;2023-02-11T03:33:39;18.90;;;11.38;;
72109;SDS011;59983;52.010;5.420;2023-02-11T03:36:23;17.67;;;12.57;;
72109;SDS011;59983;52.010;5.420;2023-02-11T03:39:01;15.60;;;12.00;;
72109;SDS011;59983;52.010;5.420;2023-02-11T03:41:30;15.13;;;11.70;;
72109;SDS011;59983;52.010;5.420;2023-02-11T03:43:59;22.40;;;13.75;;
72109;SDS011;59983;52.010;5.420;2023-02-11T03:46:29;24.15;;;12.75;;
72109;SDS011;59983;52.010;5.420;2023-02-11T03:49:01;16.30;;;11.70;;
72109;SDS011;59983;52.010;5.420;2023-02-11T03:51:34;25.80;;;13.63;;
72109;SDS011;59983;52.010;5.420;2023-02-11T03:54:03;18.63;;;12.77;;
72109;SDS011;59983;52.010;5.420;2023-02-11T03:56:35;21.70;;;12.98;;
72109;SDS011;59983;52.010;5.420;2023-02-11T03:59:07;18.58;;;13.05;;
72109;SDS011;59983;52.010;5.420;2023-02-11T04:01:33;19.25;;;11.50;;
72109;SDS011;59983;52.010;5.420;2023-02-11T04:04:00;18.67;;;13.43;;
72109;SDS011;59983;52.010;5.420;2023-02-11T04:06:27;19.52;;;12.88;;
72109;SDS011;59983;52.010;5.420;2023-02-11T04:08:53;22.10;;;13.18;;
72109;SDS011;59983;52.010;5.420;2023-02-11T04:11:20;21.67;;;13.80;;
72109;SDS011;59983;52.010;5.420;2023-02-11T04:13:46;26.58;;;13.48;;
72109;SDS011;59983;52.010;5.420;2023-02-11T04:16:13;15.80;;;13.40;;
72109;SDS011;59983;52.010;5.420;2023-02-11T04:18:39;16.15;;;12.85;;
72109;SDS011;59983;52.010;5.420;2023-02-11T04:21:06;22.40;;;14.68;;
72109;SDS011;59983;52.010;5.420;2023-02-11T04:23:32;26.35;;;14.70;;
72109;SDS011;59983;52.010;5.420;2023-02-11T04:25:59;26.60;;;13.85;;
72109;SDS011;59983;52.010;5.420;2023-02-11T04:28:25;20.63;;;13.07;;
72109;SDS011;59983;52.010;5.420;2023-02-11T04:30:54;18.02;;;12.15;;
72109;SDS011;59983;52.010;5.420;2023-02-11T04:33:21;20.40;;;12.60;;
72109;SDS011;59983;52.010;5.420;2023-02-11T04:35:48;30.48;;;15.43;;
72109;SDS011;59983;52.010;5.420;2023-02-11T04:38:15;20.05;;;14.07;;
72109;SDS011;59983;52.010;5.420;2023-02-11T04:40:42;23.57;;;15.30;;
72109;SDS011;59983;52.010;5.420;2023-02-11T04:43:08;23.08;;;14.80;;
72109;SDS011;59983;52.010;5.420;2023-02-11T04:45:35;23.45;;;14.48;;
72109;SDS011;59983;52.010;5.420;2023-02-11T04:48:02;26.95;;;14.93;;
72109;SDS011;59983;52.010;5.420;2023-02-11T04:50:29;32.50;;;17.38;;
72109;SDS011;59983;52.010;5.420;2023-02-11T04:52:55;24.13;;;15.07;;
72109;SDS011;59983;52.010;5.420;2023-02-11T04:55:22;23.63;;;15.77;;
72109;SDS011;59983;52.010;5.420;2023-02-11T04:57:49;24.58;;;13.85;;
72109;SDS011;59983;52.010;5.420;2023-02-11T05:00:16;30.42;;;15.85;;
72109;SDS011;59983;52.010;5.420;2023-02-11T05:02:42;19.05;;;14.27;;
72109;SDS011;59983;52.010;5.420;2023-02-11T05:05:09;21.77;;;15.93;;
72109;SDS011;59983;52.010;5.420;2023-02-11T05:07:35;23.73;;;15.27;;
72109;SDS011;59983;52.010;5.420;2023-02-11T05:10:02;21.55;;;15.07;;
72109;SDS011;59983;52.010;5.420;2023-02-11T05:12:29;20.00;;;15.15;;
72109;SDS011;59983;52.010;5.420;2023-02-11T05:14:55;27.67;;;14.90;;
72109;SDS011;59983;52.010;5.420;2023-02-11T05:17:22;22.03;;;16.20;;
72109;SDS011;59983;52.010;5.420;2023-02-11T05:19:48;22.63;;;15.45;;
72109;SDS011;59983;52.010;5.420;2023-02-11T05:22:15;28.00;;;14.45;;
72109;SDS011;59983;52.010;5.420;2023-02-11T05:24:41;30.35;;;16.25;;
72109;SDS011;59983;52.010;5.420;2023-02-11T05:27:08;29.88;;;15.25;;
72109;SDS011;59983;52.010;5.420;2023-02-11T05:29:34;21.57;;;14.47;;
72109;SDS011;59983;52.010;5.420;2023-02-11T05:32:01;27.23;;;16.05;;
72109;SDS011;59983;52.010;5.420;2023-02-11T05:34:27;22.48;;;14.77;;
72109;SDS011;59983;52.010;5.420;2023-02-11T05:37:01;21.88;;;14.80;;
72109;SDS011;59983;52.010;5.420;2023-02-11T05:39:27;27.10;;;16.42;;
72109;SDS011;59983;52.010;5.420;2023-02-11T05:41:54;28.20;;;16.75;;
72109;SDS011;59983;52.010;5.420;2023-02-11T05:44:20;31.07;;;15.27;;
72109;SDS011;59983;52.010;5.420;2023-02-11T05:46:47;29.90;;;16.88;;
72109;SDS011;59983;52.010;5.420;2023-02-11T05:49:15;28.30;;;16.58;;
72109;SDS011;59983;52.010;5.420;2023-02-11T05:51:42;25.15;;;17.30;;
72109;SDS011;59983;52.010;5.420;2023-02-11T05:54:09;27.80;;;17.20;;
72109;SDS011;59983;52.010;5.420;2023-02-11T05:56:35;28.50;;;17.33;;
72109;SDS011;59983;52.010;5.420;2023-02-11T05:59:02;22.58;;;17.40;;
72109;SDS011;59983;52.010;5.420;2023-02-11T06:01:28;32.10;;;18.60;;
72109;SDS011;59983;52.010;5.420;2023-02-11T06:03:55;31.10;;;17.67;;
72109;SDS011;59983;52.010;5.420;2023-02-11T06:06:22;23.80;;;17.15;;
72109;SDS011;59983;52.010;5.420;2023-02-11T06:08:49;25.03;;;17.73;;
72109;SDS011;59983;52.010;5.420;2023-02-11T06:11:15;31.77;;;18.77;;
72109;SDS011;59983;52.010;5.420;2023-02-11T06:13:43;31.60;;;17.33;;
72109;SDS011;59983;52.010;5.420;2023-02-11T06:16:09;32.75;;;18.48;;
72109;SDS011;59983;52.010;5.420;2023-02-11T06:18:36;41.30;;;18.95;;
72109;SDS011;59983;52.010;5.420;2023-02-11T06:21:05;28.03;;;16.27;;
72109;SDS011;59983;52.010;5.420;2023-02-11T06:23:33;27.77;;;17.20;;
72109;SDS011;59983;52.010;5.420;2023-02-11T06:26:00;32.45;;;17.75;;
72109;SDS011;59983;52.010;5.420;2023-02-11T06:28:28;31.75;;;18.75;;
72109;SDS011;59983;52.010;5.420;2023-02-11T06:30:56;28.83;;;19.27;;
72109;SDS011;59983;52.010;5.420;2023-02-11T06:33:23;29.17;;;19.13;;
72109;SDS011;59983;52.010;5.420;2023-02-11T06:35:50;30.25;;;18.20;;
72109;SDS011;59983;52.010;5.420;2023-02-11T06:38:17;30.15;;;19.23;;
72109;SDS011;59983;52.010;5.420;2023-02-11T06:40:47;27.80;;;19.17;;
72109;SDS011;59983;52.010;5.420;2023-02-11T06:43:14;34.63;;;20.08;;
72109;SDS011;59983;52.010;5.420;2023-02-11T06:45:42;28.50;;;19.80;;
72109;SDS011;59983;52.010;5.420;2023-02-11T06:48:08;35.13;;;19.05;;
72109;SDS011;59983;52.010;5.420;2023-02-11T06:50:35;33.45;;;18.98;;
72109;SDS011;59983;52.010;5.420;2023-02-11T06:53:02;34.63;;;19.55;;
72109;SDS011;59983;52.010;5.420;2023-02-11T06:55:28;35.13;;;20.35;;
72109;SDS011;59983;52.010;5.420;2023-02-11T06:57:55;43.17;;;20.83;;
72109;SDS011;59983;52.010;5.420;2023-02-11T07:00:21;32.50;;;21.88;;
72109;SDS011;59983;52.010;5.420;2023-02-11T07:02:48;34.85;;;19.33;;
72109;SDS011;59983;52.010;5.420;2023-02-11T07:05:14;35.28;;;20.80;;
72109;SDS011;59983;52.010;5.420;2023-02-11T07:07:41;28.58;;;18.58;;
72109;SDS011;59983;52.010;5.420;2023-02-11T07:10:07;36.53;;;20.40;;
72109;SDS011;59983;52.010;5.420;2023-02-11T07:12:34;32.65;;;19.20;;
72109;SDS011;59983;52.010;5.420;2023-02-11T07:15:01;34.95;;;19.27;;
72109;SDS011;59983;52.010;5.420;2023-02-11T07:17:27;37.83;;;19.75;;
72109;SDS011;59983;52.010;5.420;2023-02-11T07:19:54;40.78;;;20.77;;
72109;SDS011;59983;52.010;5.420;2023-02-11T07:22:21;34.97;;;20.67;;
72109;SDS011;59983;52.010;5.420;2023-02-11T07:24:47;37.42;;;19.45;;
72109;SDS011;59983;52.010;5.420;2023-02-11T07:27:14;29.23;;;18.17;;
72109;SDS011;59983;52.010;5.420;2023-02-11T07:29:41;38.15;;;21.10;;
72109;SDS011;59983;52.010;5.420;2023-02-11T07:32:07;40.13;;;21.40;;
72109;SDS011;59983;52.010;5.420;2023-02-11T07:34:34;40.57;;;22.10;;
72109;SDS011;59983;52.010;5.420;2023-02-11T07:37:01;36.45;;;21.02;;
72109;SDS011;59983;52.010;5.420;2023-02-11T07:39:28;37.42;;;19.30;;
72109;SDS011;59983;52.010;5.420;2023-02-11T07:41:54;36.83;;;21.42;;
72109;SDS011;59983;52.010;5.420;2023-02-11T07:44:22;35.35;;;21.83;;
72109;SDS011;59983;52.010;5.420;2023-02-11T07:46:48;31.43;;;21.07;;
72109;SDS011;59983;52.010;5.420;2023-02-11T07:49:15;37.08;;;21.05;;
72109;SDS011;59983;52.010;5.420;2023-02-11T07:51:41;26.65;;;19.88;;
72109;SDS011;59983;52.010;5.420;2023-02-11T07:54:08;31.13;;;21.60;;
72109;SDS011;59983;52.010;5.420;2023-02-11T07:56:35;42.25;;;20.15;;
72109;SDS011;59983;52.010;5.420;2023-02-11T07:59:02;31.77;;;20.63;;
72109;SDS011;59983;52.010;5.420;2023-02-11T08:01:29;38.88;;;21.92;;
72109;SDS011;59983;52.010;5.420;2023-02-11T08:03:57;36.83;;;20.55;;
72109;SDS011;59983;52.010;5.420;2023-02-11T08:06:25;32.88;;;19.17;;
72109;SDS011;59983;52.010;5.420;2023-02-11T08:08:54;40.97;;;19.52;;
72109;SDS011;59983;52.010;5.420;2023-02-11T08:11:24;34.07;;;19.33;;
72109;SDS011;59983;52.010;5.420;2023-02-11T08:13:53;38.95;;;21.35;;
72109;SDS011;59983;52.010;5.420;2023-02-11T08:16:22;45.00;;;20.30;;
72109;SDS011;59983;52.010;5.420;2023-02-11T08:18:54;32.75;;;20.38;;
72109;SDS011;59983;52.010;5.420;2023-02-11T08:21:23;34.90;;;21.75;;
72109;SDS011;59983;52.010;5.420;2023-02-11T08:23:50;49.20;;;21.97;;
72109;SDS011;59983;52.010;5.420;2023-02-11T08:26:18;32.42;;;19.63;;
72109;SDS011;59983;52.010;5.420;2023-02-11T08:28:47;30.98;;;18.52;;
72109;SDS011;59983;52.010;5.420;2023-02-11T08:31:16;32.63;;;19.60;;
72109;SDS011;59983;52.010;5.420;2023-02-11T08:33:45;30.73;;;21.08;;
72109;SDS011;59983;52.010;5.420;2023-02-11T08:36:12;33.83;;;20.07;;
72109;SDS011;59983;52.010;5.420;2023-02-11T08:38:41;36.53;;;21.10;;
72109;SDS011;59983;52.010;5.420;2023-02-11T08:41:08;37.65;;;23.20;;
72109;SDS011;59983;52.010;5.420;2023-02-11T08:43:35;29.98;;;19.85;;
72109;SDS011;59983;52.010;5.420;2023-02-11T08:46:02;36.70;;;22.25;;
72109;SDS011;59983;52.010;5.420;2023-02-11T08:48:29;35.87;;;21.00;;
72109;SDS011;59983;52.010;5.420;2023-02-11T08:50:55;33.25;;;20.95;;
72109;SDS011;59983;52.010;5.420;2023-02-11T08:53:22;33.88;;;20.45;;
72109;SDS011;59983;52.010;5.420;2023-02-11T08:55:50;38.63;;;21.30;;
72109;SDS011;59983;52.010;5.420;2023-02-11T08:58:20;37.70;;;21.52;;
72109;SDS011;59983;52.010;5.420;2023-02-11T09:00:47;37.53;;;22.77;;
72109;SDS011;59983;52.010;5.420;2023-02-11T09:03:15;32.05;;;22.88;;
72109;SDS011;59983;52.010;5.420;2023-02-11T09:05:43;39.08;;;22.27;;
72109;SDS011;59983;52.010;5.420;2023-02-11T09:08:11;34.75;;;21.05;;
72109;SDS011;59983;52.010;5.420;2023-02-11T09:10:38;38.20;;;23.25;;
72109;SDS011;59983;52.010;5.420;2023-02-11T09:13:05;31.73;;;21.67;;
72109;SDS011;59983;52.010;5.420;2023-02-11T09:15:32;34.33;;;20.73;;
72109;SDS011;59983;52.010;5.420;2023-02-11T09:17:58;39.67;;;22.65;;
72109;SDS011;59983;52.010;5.420;2023-02-11T09:20:25;47.08;;;23.40;;
72109;SDS011;59983;52.010;5.420;2023-02-11T09:22:52;36.22;;;22.45;;
72109;SDS011;59983;52.010;5.420;2023-02-11T09:25:20;38.33;;;22.40;;
72109;SDS011;59983;52.010;5.420;2023-02-11T09:27:46;40.33;;;21.92;;
72109;SDS011;59983;52.010;5.420;2023-02-11T09:30:13;36.70;;;21.92;;
72109;SDS011;59983;52.010;5.420;2023-02-11T09:32:39;31.65;;;20.70;;
72109;SDS011;59983;52.010;5.420;2023-02-11T09:35:06;34.67;;;22.10;;
72109;SDS011;59983;52.010;5.420;2023-02-11T09:37:32;35.53;;;22.17;;
72109;SDS011;59983;52.010;5.420;2023-02-11T09:40:02;40.08;;;22.33;;
72109;SDS011;59983;52.010;5.420;2023-02-11T09:45:09;36.08;;;22.70;;
72109;SDS011;59983;52.010;5.420;2023-02-11T09:47:52;31.95;;;21.70;;
72109;SDS011;59983;52.010;5.420;2023-02-11T09:50:34;33.27;;;24.07;;
72109;SDS011;59983;52.010;5.420;2023-02-11T09:53:26;35.15;;;22.40;;
72109;SDS011;59983;52.010;5.420;2023-02-11T09:55:57;36.00;;;25.20;;
72109;SDS011;59983;52.010;5.420;2023-02-11T09:58:30;42.10;;;24.67;;
72109;SDS011;59983;52.010;5.420;2023-02-11T10:06:53;39.53;;;24.77;;
72109;SDS011;59983;52.010;5.420;2023-02-11T10:09:42;37.22;;;23.02;;
72109;SDS011;59983;52.010;5.420;2023-02-11T10:16:01;36.58;;;24.15;;
72109;SDS011;59983;52.010;5.420;2023-02-11T10:21:18;33.60;;;21.23;;
72109;SDS011;59983;52.010;5.420;2023-02-11T10:23:59;47.53;;;25.00;;
72109;SDS011;59983;52.010;5.420;2023-02-11T10:26:29;34.63;;;24.88;;
72109;SDS011;59983;52.010;5.420;2023-02-11T10:28:58;37.25;;;23.73;;
72109;SDS011;59983;52.010;5.420;2023-02-11T10:31:40;30.07;;;21.80;;
72109;SDS011;59983;52.010;5.420;2023-02-11T10:34:11;33.70;;;22.10;;
72109;SDS011;59983;52.010;5.420;2023-02-11T10:36:39;42.00;;;22.27;;
72109;SDS011;59983;52.010;5.420;2023-02-11T10:39:10;33.33;;;20.50;;
72109;SDS011;59983;52.010;5.420;2023-02-11T10:41:45;45.15;;;22.98;;
72109;SDS011;59983;52.010;5.420;2023-02-11T10:44:30;31.30;;;21.17;;
72109;SDS011;59983;52.010;5.420;2023-02-11T10:46:59;31.45;;;21.25;;
72109;SDS011;59983;52.010;5.420;2023-02-11T10:49:37;29.30;;;19.95;;
72109;SDS011;59983;52.010;5.420;2023-02-11T10:52:17;28.45;;;19.42;;
72109;SDS011;59983;52.010;5.420;2023-02-11T10:57:21;26.83;;;18.00;;
72109;SDS011;59983;52.010;5.420;2023-02-11T10:59:57;31.08;;;19.95;;
72109;SDS011;59983;52.010;5.420;2023-02-11T11:02:29;28.35;;;19.45;;
72109;SDS011;59983;52.010;5.420;2023-02-11T11:05:03;33.17;;;19.70;;
72109;SDS011;59983;52.010;5.420;2023-02-11T11:07:39;35.28;;;20.02;;
72109;SDS011;59983;52.010;5.420;2023-02-11T11:16:05;34.13;;;19.65;;
72109;SDS011;59983;52.010;5.420;2023-02-11T11:18:39;29.73;;;19.48;;
72109;SDS011;59983;52.010;5.420;2023-02-11T11:21:11;26.27;;;18.80;;
72109;SDS011;59983;52.010;5.420;2023-02-11T11:23:38;33.33;;;19.33;;
72109;SDS011;59983;52.010;5.420;2023-02-11T11:26:12;27.88;;;19.27;;
72109;SDS011;59983;52.010;5.420;2023-02-11T11:31:17;26.77;;;16.85;;
72109;SDS011;59983;52.010;5.420;2023-02-11T11:33:48;23.90;;;18.15;;
72109;SDS011;59983;52.010;5.420;2023-02-11T11:36:19;27.73;;;17.43;;
72109;SDS011;59983;52.010;5.420;2023-02-11T11:38:49;24.65;;;16.73;;
72109;SDS011;59983;52.010;5.420;2023-02-11T11:41:23;21.90;;;17.33;;
72109;SDS011;59983;52.010;5.420;2023-02-11T11:46:23;23.95;;;18.27;;
72109;SDS011;59983;52.010;5.420;2023-02-11T11:48:58;20.17;;;16.07;;
72109;SDS011;59983;52.010;5.420;2023-02-11T11:51:32;24.55;;;15.07;;
72109;SDS011;59983;52.010;5.420;2023-02-11T11:54:02;25.00;;;18.58;;
72109;SDS011;59983;52.010;5.420;2023-02-11T11:56:33;23.77;;;16.92;;
72109;SDS011;59983;52.010;5.420;2023-02-11T11:59:09;22.00;;;16.60;;
72109;SDS011;59983;52.010;5.420;2023-02-11T12:01:49;21.17;;;15.73;;
72109;SDS011;59983;52.010;5.420;2023-02-11T12:10:16;27.20;;;15.85;;
72109;SDS011;59983;52.010;5.420;2023-02-11T12:18:46;22.92;;;16.55;;
72109;SDS011;59983;52.010;5.420;2023-02-11T12:26:19;18.95;;;16.58;;
72109;SDS011;59983;52.010;5.420;2023-02-11T12:37:01;23.90;;;17.27;;
72109;SDS011;59983;52.010;5.420;2023-02-11T12:43:14;23.80;;;17.23;;
72109;SDS011;59983;52.010;5.420;2023-02-11T12:45:38;23.65;;;15.95;;
72109;SDS011;59983;52.010;5.420;2023-02-11T12:56:04;21.93;;;16.30;;
72109;SDS011;59983;52.010;5.420;2023-02-11T12:58:41;20.02;;;15.93;;
72109;SDS011;59983;52.010;5.420;2023-02-11T13:01:15;18.75;;;14.65;;
72109;SDS011;59983;52.010;5.420;2023-02-11T13:03:47;19.80;;;14.07;;
72109;SDS011;59983;52.010;5.420;2023-02-11T13:06:21;19.50;;;16.20;;
72109;SDS011;59983;52.010;5.420;2023-02-11T13:09:01;17.77;;;14.90;;
72109;SDS011;59983;52.010;5.420;2023-02-11T13:11:33;17.33;;;15.48;;
72109;SDS011;59983;52.010;5.420;2023-02-11T13:14:08;18.10;;;14.35;;
72109;SDS011;59983;52.010;5.420;2023-02-11T13:16:46;16.65;;;14.02;;
72109;SDS011;59983;52.010;5.420;2023-02-11T13:19:20;14.73;;;12.30;;
72109;SDS011;59983;52.010;5.420;2023-02-11T13:22:04;16.00;;;13.23;;
72109;SDS011;59983;52.010;5.420;2023-02-11T13:27:12;15.70;;;13.25;;
72109;SDS011;59983;52.010;5.420;2023-02-11T13:33:02;12.38;;;11.15;;
72109;SDS011;59983;52.010;5.420;2023-02-11T13:35:36;16.23;;;13.03;;
72109;SDS011;59983;52.010;5.420;2023-02-11T13:38:23;16.35;;;12.13;;
72109;SDS011;59983;52.010;5.420;2023-02-11T13:41:06;17.83;;;13.50;;
72109;SDS011;59983;52.010;5.420;2023-02-11T13:44:35;16.63;;;13.32;;
72109;SDS011;59983;52.010;5.420;2023-02-11T13:49:29;14.00;;;12.50;;
72109;SDS011;59983;52.010;5.420;2023-02-11T13:54:49;14.63;;;12.05;;
72109;SDS011;59983;52.010;5.420;2023-02-11T13:57:22;13.38;;;12.05;;
72109;SDS011;59983;52.010;5.420;2023-02-11T13:59:58;12.90;;;11.60;;
72109;SDS011;59983;52.010;5.420;2023-02-11T14:02:45;15.27;;;11.13;;
72109;SDS011;59983;52.010;5.420;2023-02-11T14:14:03;11.45;;;10.40;;
72109;SDS011;59983;52.010;5.420;2023-02-11T14:26:58;9.68;;;8.80;;
72109;SDS011;59983;52.010;5.420;2023-02-11T14:29:33;10.23;;;9.27;;
72109;SDS011;59983;52.010;5.420;2023-02-11T14:32:15;13.32;;;9.70;;
72109;SDS011;59983;52.010;5.420;2023-02-11T14:42:55;9.00;;;8.10;;
72109;SDS011;59983;52.010;5.420;2023-02-11T14:45:27;9.40;;;8.35;;
72109;SDS011;59983;52.010;5.420;2023-02-11T14:48:01;10.05;;;8.82;;
72109;SDS011;59983;52.010;5.420;2023-02-11T14:50:37;10.30;;;9.05;;
72109;SDS011;59983;52.010;5.420;2023-02-11T14:53:24;9.52;;;8.18;;
72109;SDS011;59983;52.010;5.420;2023-02-11T14:55:53;9.23;;;8.43;;
72109;SDS011;59983;52.010;5.420;2023-02-11T14:58:25;9.45;;;8.43;;
72109;SDS011;59983;52.010;5.420;2023-02-11T15:00:54;9.95;;;9.05;;
72109;SDS011;59983;52.010;5.420;2023-02-11T15:05:54;10.05;;;9.05;;
72109;SDS011;59983;52.010;5.420;2023-02-11T15:08:23;10.83;;;7.93;;
72109;SDS011;59983;52.010;5.420;2023-02-11T15:10:50;9.95;;;8.95;;
72109;SDS011;59983;52.010;5.420;2023-02-11T15:13:20;12.60;;;8.65;;
72109;SDS011;59983;52.010;5.420;2023-02-11T15:15:53;10.55;;;9.45;;
72109;SDS011;59983;52.010;5.420;2023-02-11T15:18:23;9.02;;;8.32;;
72109;SDS011;59983;52.010;5.420;2023-02-11T15:20:58;8.90;;;8.10;;
72109;SDS011;59983;52.010;5.420;2023-02-11T15:23:26;9.80;;;9.00;;
72109;SDS011;59983;52.010;5.420;2023-02-11T15:25:54;10.10;;;9.10;;
72109;SDS011;59983;52.010;5.420;2023-02-11T15:28:26;9.95;;;8.65;;
72109;SDS011;59983;52.010;5.420;2023-02-11T15:33:43;9.27;;;7.93;;
72109;SDS011;59983;52.010;5.420;2023-02-11T15:36:11;11.65;;;9.63;;
72109;SDS011;59983;52.010;5.420;2023-02-11T15:38:38;9.10;;;8.38;;
72109;SDS011;59983;52.010;5.420;2023-02-11T15:41:06;8.60;;;8.00;;
72109;SDS011;59983;52.010;5.420;2023-02-11T15:43:46;10.35;;;9.35;;
72109;SDS011;59983;52.010;5.420;2023-02-11T15:46:17;10.90;;;9.77;;
72109;SDS011;59983;52.010;5.420;2023-02-11T15:48:49;10.07;;;9.07;;
72109;SDS011;59983;52.010;5.420;2023-02-11T15:51:22;10.15;;;9.15;;
72109;SDS011;59983;52.010;5.420;2023-02-11T15:53:55;9.77;;;8.25;;
72109;SDS011;59983;52.010;5.420;2023-02-11T15:56:26;10.80;;;9.80;;
72109;SDS011;59983;52.010;5.420;2023-02-11T16:01:43;10.05;;;9.05;;
72109;SDS011;59983;52.010;5.420;2023-02-11T16:04:21;12.23;;;10.50;;
72109;SDS011;59983;52.010;5.420;2023-02-11T16:06:50;12.25;;;10.27;;
72109;SDS011;59983;52.010;5.420;2023-02-11T16:14:44;11.35;;;9.60;;
72109;SDS011;59983;52.010;5.420;2023-02-11T16:17:11;11.48;;;10.27;;
72109;SDS011;59983;52.010;5.420;2023-02-11T16:19:48;11.70;;;10.50;;
72109;SDS011;59983;52.010;5.420;2023-02-11T16:22:18;10.48;;;9.45;;
72109;SDS011;59983;52.010;5.420;2023-02-11T16:24:50;13.20;;;9.77;;
72109;SDS011;59983;52.010;5.420;2023-02-11T16:27:21;11.48;;;10.20;;
72109;SDS011;59983;52.010;5.420;2023-02-11T16:29:53;12.10;;;10.15;;
72109;SDS011;59983;52.010;5.420;2023-02-11T16:32:21;11.00;;;10.13;;
72109;SDS011;59983;52.010;5.420;2023-02-11T16:34:51;10.45;;;9.45;;
72109;SDS011;59983;52.010;5.420;2023-02-11T16:37:18;11.10;;;10.00;;
72109;SDS011;59983;52.010;5.420;2023-02-11T16:39:45;10.38;;;9.52;;
72109;SDS011;59983;52.010;5.420;2023-02-11T16:42:12;13.13;;;10.68;;
72109;SDS011;59983;52.010;5.420;2023-02-11T16:44:38;9.82;;;8.93;;
72109;SDS011;59983;52.010;5.420;2023-02-11T16:47:06;11.43;;;10.32;;
72109;SDS011;59983;52.010;5.420;2023-02-11T16:49:40;12.33;;;11.10;;
72109;SDS011;59983;52.010;5.420;2023-02-11T16:52:08;15.43;;;10.25;;
72109;SDS011;59983;52.010;5.420;2023-02-11T16:54:39;11.77;;;9.98;;
72109;SDS011;59983;52.010;5.420;2023-02-11T16:57:11;12.65;;;9.55;;